Terminal Aerodrome Forecast
Issued by NWS Cleveland, OH

Home | Current Version | Previous Version | Text Only | Print | Product List | Glossary On
Versions: 1 2 3 4 5 6 7 8 9 10 11 12 13 14 15 16 17 18 19
000
FTUS41 KCLE 191700
TAFYNG
TAF
KYNG 191740Z 1918/2018 12015G25KT P6SM SCT050 OVC120
     FM200200 14020G32KT 4SM -SHRA BKN015 OVC025
     FM200900 16015G25KT P6SM SCT015 OVC025
     FM201300 19015G25KT P6SM OVC035=

USA.gov is the U.S. government's official web portal to all federal, state and local government web resources and services.